Time;durP1;ratioP1;P1;durP2;ratioP2;P2;SDS_P1;SDS_P2;PMS_P1;PMS_P2;Temp;Humidity;BMP_temperature;BMP_pressure;BME280_temperature;BME280_humidity;BME280_pressure;Samples;Min_cycle;Max_cycle;Signal;HPM_P1;HPM_P2
2022/12/20 00:01:28;;;;;;;6.25;4.18;;;8.90;99.90;;;;;;5018613;28;20090;-67
2022/12/20 00:03:56;;;;;;;6.07;4.20;;;8.90;99.90;;;;;;5019021;28;20586;-64
2022/12/20 00:06:23;;;;;;;5.32;4.30;;;9.40;99.90;;;;;;5031747;28;20040;-68
2022/12/20 00:08:53;;;;;;;5.65;3.67;;;9.40;99.90;;;;;;5018463;28;20383;-66
2022/12/20 00:11:19;;;;;;;7.32;4.40;;;9.00;99.90;;;;;;5018990;28;20045;-66
2022/12/20 00:13:46;;;;;;;7.13;4.70;;;9.40;99.90;;;;;;5035362;28;20039;-66
2022/12/20 00:16:18;;;;;;;8.98;4.22;;;8.90;99.90;;;;;;5034299;28;20045;-67
2022/12/20 00:18:44;;;;;;;7.93;4.38;;;8.90;99.90;;;;;;5035621;28;20219;-67
2022/12/20 00:21:12;;;;;;;5.97;4.07;;;9.50;99.90;;;;;;5016738;28;20045;-67
2022/12/20 00:23:39;;;;;;;7.53;4.60;;;9.50;99.90;;;;;;5031761;28;20043;-67
2022/12/20 00:26:14;;;;;;;6.55;4.32;;;8.90;99.90;;;;;;5034287;28;20494;-67
2022/12/20 00:28:41;;;;;;;7.40;4.53;;;9.00;99.90;;;;;;5033693;28;20465;-67
2022/12/20 00:31:08;;;;;;;8.32;3.97;;;9.10;99.90;;;;;;5021063;28;20049;-66
2022/12/20 00:33:36;;;;;;;7.18;3.88;;;9.00;99.90;;;;;;5034535;28;20366;-67
2022/12/20 00:36:03;;;;;;;9.02;4.10;;;9.60;99.90;;;;;;5017729;28;20056;-66
2022/12/20 00:38:29;;;;;;;6.47;3.90;;;9.60;99.90;;;;;;5013829;28;20481;-67
2022/12/20 00:41:04;;;;;;;8.18;3.97;;;8.90;99.90;;;;;;5018141;28;20041;-66
2022/12/20 00:43:31;;;;;;;7.38;3.83;;;9.50;99.90;;;;;;5035450;28;20179;-67
2022/12/20 00:45:58;;;;;;;6.90;4.00;;;9.00;99.90;;;;;;5032535;28;20059;-66
2022/12/20 00:48:24;;;;;;;5.18;3.70;;;8.80;99.90;;;;;;5064913;28;20041;-66
2022/12/20 00:50:51;;;;;;;7.25;3.60;;;8.80;99.90;;;;;;5034677;28;20041;-66
2022/12/20 00:53:16;;;;;;;6.88;3.67;;;8.80;99.90;;;;;;5029693;28;20064;-66
2022/12/20 00:55:45;;;;;;;8.25;3.75;;;9.40;99.90;;;;;;5034284;28;20483;-66
2022/12/20 00:58:12;;;;;;;5.28;3.25;;;8.90;99.90;;;;;;5022181;28;20535;-67
2022/12/20 01:00:39;;;;;;;4.85;3.20;;;9.00;99.90;;;;;;5033423;28;20045;-66
2022/12/20 01:03:05;;;;;;;4.32;3.03;;;9.10;99.90;;;;;;5034232;28;20546;-66
2022/12/20 01:05:32;;;;;;;5.38;3.03;;;9.60;99.90;;;;;;5035773;28;20051;-66
2022/12/20 01:07:57;;;;;;;6.18;3.00;;;9.30;99.90;;;;;;5063418;28;20330;-66
2022/12/20 01:10:23;;;;;;;4.95;2.80;;;9.50;99.90;;;;;;5030920;28;20048;-66
2022/12/20 01:12:49;;;;;;;4.95;3.30;;;9.50;99.90;;;;;;5034017;28;20148;-66
2022/12/20 01:15:16;;;;;;;4.68;3.00;;;9.20;99.90;;;;;;5033112;28;20123;-67
2022/12/20 01:17:41;;;;;;;4.70;3.20;;;9.40;99.90;;;;;;5033004;28;20507;-66
2022/12/20 01:20:08;;;;;;;7.47;3.22;;;9.40;99.90;;;;;;5034088;28;20045;-65
2022/12/20 01:22:34;;;;;;;5.05;2.80;;;9.60;99.90;;;;;;5033952;28;20041;-65
2022/12/20 01:24:59;;;;;;;4.90;3.08;;;9.20;99.90;;;;;;5013251;28;20056;-66
2022/12/20 01:27:25;;;;;;;4.35;2.70;;;9.20;99.90;;;;;;5017359;28;20041;-65
2022/12/20 01:29:51;;;;;;;4.70;2.53;;;9.60;99.90;;;;;;5017965;28;20048;-65
2022/12/20 01:32:16;;;;;;;7.13;3.00;;;9.40;99.90;;;;;;5031834;28;20049;-65
2022/12/20 01:34:43;;;;;;;7.68;2.80;;;9.30;99.90;;;;;;5034125;28;20053;-65
2022/12/20 01:37:09;;;;;;;6.00;3.15;;;9.30;99.90;;;;;;5032990;28;20051;-66
2022/12/20 01:39:34;;;;;;;6.20;2.67;;;9.60;99.90;;;;;;4999036;28;20033;-66
2022/12/20 01:42:00;;;;;;;7.13;2.92;;;9.50;99.90;;;;;;5014845;28;20052;-66
2022/12/20 01:44:26;;;;;;;3.75;3.00;;;9.70;99.90;;;;;;5017891;28;20166;-66
2022/12/20 01:46:52;;;;;;;5.28;2.65;;;9.80;99.90;;;;;;5033775;28;20041;-65
2022/12/20 01:49:32;;;;;;;4.28;2.55;;;9.50;99.90;;;;;;5033397;28;20068;-65
2022/12/20 01:52:10;;;;;;;4.25;2.45;;;9.50;99.90;;;;;;5022016;28;20040;-64
2022/12/20 01:54:48;;;;;;;2.53;1.50;;;9.80;99.90;;;;;;5063392;28;20095;-65
2022/12/20 01:57:20;;;;;;;4.20;2.40;;;9.50;99.90;;;;;;5030413;28;20045;-65
2022/12/20 01:59:47;;;;;;;4.75;2.13;;;9.50;99.90;;;;;;5035054;28;20033;-65
2022/12/20 02:02:13;;;;;;;2.75;2.08;;;9.50;99.90;;;;;;5031048;28;20131;-66
2022/12/20 02:04:39;;;;;;;3.28;2.00;;;9.60;99.90;;;;;;5032751;28;20032;-66
2022/12/20 02:07:07;;;;;;;4.20;1.95;;;9.60;99.90;;;;;;5033920;28;20040;-66
2022/12/20 02:09:34;;;;;;;4.13;1.80;;;9.60;99.90;;;;;;5015973;28;20037;-66
2022/12/20 02:12:10;;;;;;;4.80;1.90;;;9.60;99.90;;;;;;5031602;28;20076;-66
2022/12/20 02:14:42;;;;;;;3.42;1.80;;;9.80;99.90;;;;;;5034151;28;20547;-65
2022/12/20 02:17:30;;;;;;;2.67;2.03;;;9.90;99.90;;;;;;5033041;28;20072;-65
2022/12/20 02:20:10;;;;;;;3.72;2.10;;;9.50;99.90;;;;;;5032132;28;21186;-64
2022/12/20 02:23:00;;;;;;;4.07;1.98;;;9.60;99.90;;;;;;5051839;28;20568;-65
2022/12/20 02:25:44;;;;;;;3.75;2.38;;;9.70;99.90;;;;;;5067205;28;20087;-66
2022/12/20 02:28:22;;;;;;;4.40;1.90;;;9.80;99.90;;;;;;5036209;28;20071;-65
2022/12/20 02:30:49;;;;;;;5.25;2.13;;;9.80;99.90;;;;;;5020421;28;20053;-65
2022/12/20 02:33:17;;;;;;;4.35;2.22;;;9.80;99.90;;;;;;5037265;28;20082;-66
2022/12/20 02:35:43;;;;;;;4.10;1.80;;;9.60;99.90;;;;;;5035705;28;20071;-65
2022/12/20 02:38:31;;;;;;;3.38;2.10;;;9.60;99.90;;;;;;5037034;28;20045;-65
2022/12/20 02:41:02;;;;;;;3.85;2.00;;;9.70;99.90;;;;;;5035690;28;20071;-65
2022/12/20 02:46:15;;;;;;;4.78;2.22;;;9.80;99.90;;;;;;5034833;28;20052;-65
2022/12/20 02:48:42;;;;;;;4.97;2.00;;;9.70;99.90;;;;;;5037458;28;20102;-64
2022/12/20 02:51:10;;;;;;;5.00;2.08;;;9.90;99.90;;;;;;5037733;28;20053;-65
2022/12/20 02:53:37;;;;;;;4.93;2.30;;;9.70;99.90;;;;;;5036213;28;20559;-64
2022/12/20 02:56:12;;;;;;;2.80;1.70;;;9.60;99.90;;;;;;5036430;28;20437;-65
2022/12/20 02:58:56;;;;;;;5.63;2.50;;;9.50;99.90;;;;;;5066529;28;20041;-65
2022/12/20 03:01:36;;;;;;;4.55;2.17;;;9.70;99.90;;;;;;5049621;28;20163;-66
2022/12/20 03:04:03;;;;;;;3.55;1.67;;;9.70;99.90;;;;;;5066230;28;20052;-65
2022/12/20 03:06:29;;;;;;;3.00;1.90;;;9.60;99.90;;;;;;5035105;28;20049;-66
2022/12/20 03:08:55;;;;;;;3.67;1.88;;;9.80;99.90;;;;;;5019774;28;20373;-66
2022/12/20 03:11:21;;;;;;;3.33;1.92;;;9.70;99.90;;;;;;5018976;28;20048;-66
2022/12/20 03:13:47;;;;;;;4.45;1.60;;;9.90;99.90;;;;;;5019235;28;20523;-65
2022/12/20 03:16:13;;;;;;;3.17;1.67;;;9.80;99.90;;;;;;5000522;28;20057;-65
2022/12/20 03:18:39;;;;;;;2.90;1.73;;;9.70;99.90;;;;;;5039889;28;20087;-65
2022/12/20 03:21:05;;;;;;;4.18;2.28;;;9.80;99.90;;;;;;5034737;28;20148;-65
2022/12/20 03:23:31;;;;;;;6.47;2.35;;;9.50;99.90;;;;;;5037075;28;20557;-65
2022/12/20 03:25:57;;;;;;;2.35;1.85;;;9.40;99.90;;;;;;5036590;28;20043;-65
2022/12/20 03:28:23;;;;;;;3.97;2.40;;;9.40;99.90;;;;;;5033986;28;20041;-66
2022/12/20 03:30:49;;;;;;;3.30;2.53;;;9.20;99.90;;;;;;5035956;28;20733;-66
2022/12/20 03:33:15;;;;;;;3.80;2.47;;;9.50;99.90;;;;;;5033196;28;20227;-65
2022/12/20 03:35:41;;;;;;;6.07;2.67;;;9.20;99.90;;;;;;5035004;28;20073;-65
2022/12/20 03:38:07;;;;;;;4.40;2.70;;;9.60;99.90;;;;;;5035090;28;20521;-65
2022/12/20 03:40:32;;;;;;;4.95;2.90;;;9.30;99.90;;;;;;5035746;28;20033;-66
2022/12/20 03:42:58;;;;;;;5.72;2.92;;;9.40;99.90;;;;;;5017847;28;20998;-66
2022/12/20 03:45:24;;;;;;;5.82;3.08;;;9.50;99.90;;;;;;5035914;28;20499;-66
2022/12/20 03:47:49;;;;;;;5.88;3.20;;;9.40;99.90;;;;;;5017343;28;20036;-66
2022/12/20 03:50:15;;;;;;;4.35;2.83;;;9.50;99.90;;;;;;5035458;28;20495;-67
2022/12/20 03:52:41;;;;;;;5.05;3.20;;;9.10;99.90;;;;;;5034589;28;20044;-66
2022/12/20 03:55:08;;;;;;;6.82;3.63;;;8.80;99.90;;;;;;5036775;28;20088;-68
2022/12/20 03:57:34;;;;;;;4.60;2.97;;;8.80;99.90;;;;;;5034982;28;21700;-66
2022/12/20 03:59:59;;;;;;;3.88;3.25;;;9.00;99.90;;;;;;5017527;28;20045;-67
2022/12/20 04:02:25;;;;;;;3.80;2.60;;;9.50;99.90;;;;;;5018616;28;20037;-66
2022/12/20 04:04:51;;;;;;;6.57;3.92;;;8.90;99.90;;;;;;5032858;28;20041;-66
2022/12/20 04:07:18;;;;;;;6.28;3.10;;;9.50;99.90;;;;;;5033107;28;20048;-67
2022/12/20 04:09:44;;;;;;;3.95;3.00;;;9.10;99.90;;;;;;5035646;28;20055;-66
2022/12/20 04:12:09;;;;;;;5.78;3.45;;;8.90;99.90;;;;;;5019577;28;20045;-66
2022/12/20 04:14:36;;;;;;;7.22;3.53;;;9.40;99.90;;;;;;5017340;28;20044;-66
2022/12/20 04:17:02;;;;;;;6.20;3.13;;;9.20;99.90;;;;;;5017498;28;20135;-66
2022/12/20 04:19:28;;;;;;;6.25;3.63;;;9.00;99.90;;;;;;5016510;28;20295;-66
2022/12/20 04:21:55;;;;;;;4.70;3.30;;;9.50;99.90;;;;;;5033334;28;20139;-67
2022/12/20 04:24:20;;;;;;;8.35;3.00;;;9.30;99.90;;;;;;5018547;28;20114;-67
2022/12/20 04:26:48;;;;;;;5.13;3.70;;;9.70;99.90;;;;;;5035285;28;20045;-66
2022/12/20 04:29:13;;;;;;;5.80;3.50;;;9.10;99.90;;;;;;5033719;28;20072;-66
2022/12/20 04:31:39;;;;;;;5.32;3.05;;;9.20;99.90;;;;;;5033321;28;20620;-67
2022/12/20 04:34:05;;;;;;;5.68;3.03;;;9.00;99.90;;;;;;5018747;28;20105;-67
2022/12/20 04:36:31;;;;;;;5.72;3.08;;;9.70;99.90;;;;;;5015210;28;20407;-67
2022/12/20 04:38:57;;;;;;;5.28;2.70;;;9.50;99.90;;;;;;5016691;28;20033;-67
2022/12/20 04:41:22;;;;;;;5.72;3.15;;;9.10;99.90;;;;;;5034583;28;20118;-66
2022/12/20 04:43:56;;;;;;;4.72;3.30;;;9.10;99.90;;;;;;5018712;28;20036;-67
2022/12/20 04:46:24;;;;;;;4.22;3.05;;;9.40;99.90;;;;;;5015606;28;20064;-67
2022/12/20 04:48:50;;;;;;;5.07;3.83;;;9.00;99.90;;;;;;5035214;28;20040;-67
2022/12/20 04:51:16;;;;;;;3.80;2.72;;;9.70;99.90;;;;;;5032630;28;20045;-65
2022/12/20 04:53:48;;;;;;;3.80;2.65;;;9.50;99.90;;;;;;5032271;28;20522;-66
2022/12/20 04:56:17;;;;;;;4.60;3.17;;;9.10;99.90;;;;;;5018060;28;20140;-67
2022/12/20 04:58:43;;;;;;;5.32;3.50;;;9.00;99.90;;;;;;5035307;28;20051;-67
2022/12/20 05:01:10;;;;;;;5.72;3.50;;;9.10;99.90;;;;;;5034101;28;20075;-67
2022/12/20 05:03:36;;;;;;;6.25;3.63;;;9.70;99.90;;;;;;5034259;28;20076;-65
2022/12/20 05:06:02;;;;;;;5.13;3.10;;;9.40;99.90;;;;;;5034645;28;20521;-67
2022/12/20 05:08:28;;;;;;;7.63;3.75;;;9.80;99.90;;;;;;5031141;28;20525;-65
2022/12/20 05:10:54;;;;;;;5.68;3.13;;;9.50;99.90;;;;;;5035942;28;20116;-66
2022/12/20 05:13:20;;;;;;;4.32;3.90;;;9.10;99.90;;;;;;5036340;28;20177;-66
2022/12/20 05:15:53;;;;;;;6.82;4.05;;;9.20;99.90;;;;;;5036091;28;20041;-64
2022/12/20 05:18:19;;;;;;;5.47;3.83;;;9.90;99.90;;;;;;5033699;28;20085;-65
2022/12/20 05:20:45;;;;;;;4.55;3.70;;;9.90;99.90;;;;;;4985400;28;20041;-66
2022/12/20 05:28:27;;;;;;;6.28;3.55;;;9.50;99.90;;;;;;5018614;28;20045;-66
2022/12/20 05:30:53;;;;;;;6.57;3.45;;;10.10;99.90;;;;;;5033882;28;20045;-66
2022/12/20 05:33:19;;;;;;;8.15;3.80;;;9.60;99.90;;;;;;5035240;28;20041;-67
2022/12/20 05:35:45;;;;;;;4.47;3.55;;;10.10;99.90;;;;;;5018173;28;20099;-67
2022/12/20 05:38:11;;;;;;;5.28;3.40;;;9.80;99.90;;;;;;5064413;28;20040;-67
2022/12/20 05:40:36;;;;;;;4.68;3.53;;;10.00;99.90;;;;;;5031176;28;20044;-67
2022/12/20 05:43:02;;;;;;;3.90;3.33;;;9.50;99.90;;;;;;5017218;28;20047;-67
2022/12/20 05:45:28;;;;;;;5.80;3.13;;;10.20;99.90;;;;;;5033629;28;20276;-68
2022/12/20 05:47:53;;;;;;;4.20;3.30;;;9.60;99.90;;;;;;4999054;28;20041;-67
2022/12/20 05:50:19;;;;;;;3.53;2.80;;;10.00;99.90;;;;;;5017539;28;20041;-67
2022/12/20 05:52:45;;;;;;;5.70;3.50;;;9.90;99.90;;;;;;5017152;28;20045;-68
2022/12/20 05:55:10;;;;;;;6.57;3.13;;;10.30;99.90;;;;;;5002715;28;20045;-68
2022/12/20 05:57:36;;;;;;;3.78;3.08;;;10.40;99.90;;;;;;5018272;28;20048;-67
2022/12/20 06:00:06;;;;;;;4.68;3.10;;;9.80;99.90;;;;;;5040038;28;20033;-66
2022/12/20 06:02:31;;;;;;;4.55;2.92;;;10.40;99.90;;;;;;5037346;28;20494;-66
2022/12/20 06:04:57;;;;;;;4.15;2.88;;;9.80;99.90;;;;;;5004646;28;20064;-67
2022/12/20 06:07:24;;;;;;;4.93;2.83;;;10.00;99.90;;;;;;5020463;28;20072;-66
2022/12/20 06:09:50;;;;;;;3.28;2.35;;;9.80;99.90;;;;;;5035972;28;20057;-66
2022/12/20 06:12:16;;;;;;;3.75;2.42;;;10.40;99.90;;;;;;5036046;28;20045;-65
2022/12/20 06:14:41;;;;;;;3.30;1.83;;;10.40;99.90;;;;;;5020924;28;20079;-66
2022/12/20 06:17:07;;;;;;;3.20;2.53;;;10.50;99.90;;;;;;5037290;28;20132;-65
2022/12/20 06:19:33;;;;;;;6.28;2.80;;;9.90;99.90;;;;;;5019128;28;20249;-67
2022/12/20 06:22:00;;;;;;;3.75;2.50;;;10.50;99.90;;;;;;5038987;28;20079;-67
2022/12/20 06:24:26;;;;;;;4.57;2.60;;;10.40;99.90;;;;;;5036622;28;20053;-65
2022/12/20 06:26:52;;;;;;;4.25;2.63;;;10.10;99.90;;;;;;5033433;28;20246;-67
2022/12/20 06:29:19;;;;;;;2.72;1.83;;;9.90;99.90;;;;;;5038657;28;20072;-66
2022/12/20 06:31:48;;;;;;;3.75;2.05;;;10.10;99.90;;;;;;5039812;28;20520;-66
2022/12/20 06:34:14;;;;;;;3.70;2.33;;;10.50;99.90;;;;;;5035283;28;20490;-67
2022/12/20 06:36:40;;;;;;;3.75;2.17;;;10.20;99.90;;;;;;5003727;28;20044;-67
2022/12/20 06:39:08;;;;;;;5.32;2.33;;;10.40;99.90;;;;;;5020986;28;20388;-66
2022/12/20 06:41:34;;;;;;;3.72;2.50;;;10.30;99.90;;;;;;5017064;28;20219;-66
2022/12/20 06:43:59;;;;;;;4.25;2.10;;;10.20;99.90;;;;;;5034413;28;20490;-65
2022/12/20 06:46:26;;;;;;;4.25;2.33;;;10.10;99.90;;;;;;5036759;28;20143;-67
2022/12/20 06:48:52;;;;;;;4.00;2.40;;;10.00;99.90;;;;;;5036462;28;20060;-66
2022/12/20 06:51:18;;;;;;;3.83;2.03;;;10.00;99.90;;;;;;5035797;28;20049;-67
2022/12/20 06:53:44;;;;;;;6.28;2.50;;;10.50;99.90;;;;;;5037693;28;20037;-66
2022/12/20 06:56:09;;;;;;;4.72;2.35;;;10.10;99.90;;;;;;5036490;28;20045;-66
2022/12/20 06:58:35;;;;;;;3.13;2.00;;;10.30;99.90;;;;;;5032599;28;20029;-65
2022/12/20 07:01:01;;;;;;;4.15;2.15;;;10.10;99.90;;;;;;5037456;28;20079;-64
2022/12/20 07:03:27;;;;;;;2.40;1.95;;;10.40;99.90;;;;;;5037046;28;20036;-65
2022/12/20 07:05:54;;;;;;;3.95;2.10;;;10.10;99.90;;;;;;5035969;28;20540;-65
2022/12/20 07:08:21;;;;;;;4.82;2.03;;;10.30;99.90;;;;;;5020357;28;20037;-66
2022/12/20 07:10:47;;;;;;;2.72;1.70;;;10.60;99.90;;;;;;5020160;28;20290;-66
2022/12/20 07:13:13;;;;;;;4.70;2.17;;;10.20;99.90;;;;;;5017921;28;20421;-64
2022/12/20 07:15:39;;;;;;;2.33;1.73;;;10.70;99.90;;;;;;5035685;28;20509;-66
2022/12/20 07:18:05;;;;;;;4.22;1.98;;;10.40;99.90;;;;;;5036644;28;20526;-65
2022/12/20 07:20:32;;;;;;;6.03;2.28;;;10.40;99.90;;;;;;5036301;28;20067;-64
2022/12/20 07:22:57;;;;;;;6.05;2.40;;;10.60;99.90;;;;;;5036836;28;20119;-65
2022/12/20 07:25:24;;;;;;;3.30;2.00;;;10.20;99.90;;;;;;5020325;28;20045;-64
2022/12/20 07:27:50;;;;;;;4.75;2.63;;;10.20;99.90;;;;;;5017721;28;20044;-67
2022/12/20 07:30:20;;;;;;;4.68;2.55;;;10.20;99.90;;;;;;5032622;28;20056;-66
2022/12/20 07:32:46;;;;;;;4.13;3.28;;;10.10;99.90;;;;;;5033984;28;20036;-66
2022/12/20 07:35:13;;;;;;;4.75;3.17;;;10.00;99.90;;;;;;5037097;28;20485;-65
2022/12/20 07:37:39;;;;;;;4.88;3.42;;;10.00;99.90;;;;;;5035819;28;20110;-65
2022/12/20 07:40:06;;;;;;;7.00;3.60;;;10.50;99.90;;;;;;5019109;28;20041;-66
2022/12/20 07:42:32;;;;;;;8.55;4.38;;;10.30;99.90;;;;;;5037324;28;20050;-67
2022/12/20 07:44:58;;;;;;;6.07;4.10;;;10.40;99.90;;;;;;5017126;28;20045;-64
2022/12/20 07:47:24;;;;;;;6.20;4.70;;;10.40;99.90;;;;;;5036383;28;20041;-64
2022/12/20 07:49:49;;;;;;;5.97;4.88;;;9.70;99.90;;;;;;5037361;28;20118;-64
2022/12/20 07:52:18;;;;;;;5.78;4.75;;;10.50;99.90;;;;;;5035568;28;20370;-64
2022/12/20 07:54:49;;;;;;;7.50;4.68;;;9.50;99.90;;;;;;5038738;28;20040;-64
2022/12/20 07:57:22;;;;;;;8.95;5.55;;;10.40;99.90;;;;;;5020309;28;20226;-64
2022/12/20 07:59:51;;;;;;;4.90;4.40;;;10.40;99.90;;;;;;5036580;28;20045;-64
2022/12/20 08:02:23;;;;;;;7.30;4.97;;;10.20;99.90;;;;;;5036216;28;20409;-65
2022/12/20 08:04:49;;;;;;;7.47;5.10;;;10.50;99.90;;;;;;5038144;28;20638;-64
2022/12/20 08:07:16;;;;;;;7.20;5.45;;;10.50;99.90;;;;;;5036205;28;20122;-64
2022/12/20 08:09:43;;;;;;;7.28;5.53;;;9.70;99.90;;;;;;5018867;28;20037;-65
2022/12/20 08:12:13;;;;;;;6.03;4.78;;;9.60;99.90;;;;;;5037053;28;20045;-65
2022/12/20 08:14:39;;;;;;;7.28;5.32;;;10.40;99.90;;;;;;5035544;28;20200;-64
2022/12/20 08:17:05;;;;;;;5.38;4.60;;;10.50;99.90;;;;;;5033855;28;20052;-65
2022/12/20 08:19:30;;;;;;;7.35;4.82;;;10.40;99.90;;;;;;5018397;28;20365;-65
2022/12/20 08:21:56;;;;;;;6.43;5.10;;;9.70;99.90;;;;;;5017281;28;20075;-66
2022/12/20 08:24:25;;;;;;;7.18;5.95;;;9.80;99.90;;;;;;5035527;28;20819;-65
2022/12/20 08:26:50;;;;;;;8.07;5.53;;;9.80;99.90;;;;;;5036700;28;20103;-64
2022/12/20 08:29:16;;;;;;;7.63;5.03;;;10.00;99.90;;;;;;5049966;28;20076;-64
2022/12/20 08:31:42;;;;;;;8.27;5.82;;;10.60;99.90;;;;;;5034409;28;20044;-65
2022/12/20 08:34:08;;;;;;;6.63;4.57;;;9.70;99.90;;;;;;5016756;28;20051;-65
2022/12/20 08:36:34;;;;;;;6.68;4.80;;;10.70;99.90;;;;;;5036601;28;20055;-65
2022/12/20 08:39:07;;;;;;;6.88;5.13;;;10.50;99.90;;;;;;5035432;28;20029;-66
2022/12/20 08:41:36;;;;;;;6.50;4.80;;;10.60;99.90;;;;;;5036085;28;20148;-64
2022/12/20 08:44:03;;;;;;;7.07;4.03;;;10.60;99.90;;;;;;5037237;28;20049;-64
2022/12/20 08:46:28;;;;;;;7.95;4.85;;;9.90;99.90;;;;;;5035440;28;20409;-64
2022/12/20 08:48:54;;;;;;;6.05;5.10;;;10.00;99.90;;;;;;5035392;28;20402;-66
2022/12/20 08:51:20;;;;;;;4.63;4.20;;;9.80;99.90;;;;;;5036655;28;20512;-66
2022/12/20 08:53:45;;;;;;;5.57;4.13;;;9.90;99.90;;;;;;5018687;28;20069;-66
2022/12/20 08:56:16;;;;;;;6.22;4.72;;;10.50;99.90;;;;;;5039071;28;20121;-64
2022/12/20 08:58:43;;;;;;;5.85;5.25;;;10.20;99.90;;;;;;5005008;28;20070;-64
2022/12/20 09:01:12;;;;;;;6.40;4.65;;;9.90;99.90;;;;;;5019852;28;20041;-66
2022/12/20 09:03:39;;;;;;;6.45;4.68;;;9.80;99.90;;;;;;5036676;28;20053;-65
2022/12/20 09:06:14;;;;;;;8.20;4.25;;;10.00;99.90;;;;;;5034727;28;20060;-66
2022/12/20 09:08:40;;;;;;;5.05;3.97;;;10.60;99.90;;;;;;5036983;28;20040;-65
2022/12/20 09:11:19;;;;;;;7.20;4.75;;;9.80;99.90;;;;;;5003577;28;20049;-66
2022/12/20 09:13:46;;;;;;;5.53;4.25;;;9.90;99.90;;;;;;5020430;28;20041;-65
2022/12/20 09:16:14;;;;;;;4.95;4.15;;;9.90;99.90;;;;;;5036850;28;20048;-66
2022/12/20 09:18:40;;;;;;;4.60;3.40;;;10.10;99.90;;;;;;5036064;28;20499;-65
2022/12/20 09:21:07;;;;;;;4.65;3.70;;;9.90;99.90;;;;;;5017830;28;20048;-66
2022/12/20 09:23:34;;;;;;;5.13;2.70;;;10.00;99.90;;;;;;5019797;28;20068;-65
2022/12/20 09:26:02;;;;;;;4.97;3.60;;;9.90;99.90;;;;;;5018652;28;20041;-65
2022/12/20 09:28:29;;;;;;;6.30;3.38;;;10.30;99.90;;;;;;5036521;28;20045;-65
2022/12/20 09:31:02;;;;;;;5.68;3.50;;;10.00;99.90;;;;;;5019958;28;20228;-66
2022/12/20 09:33:29;;;;;;;4.97;2.90;;;10.70;99.90;;;;;;5039084;28;20617;-65
2022/12/20 09:35:56;;;;;;;5.70;3.15;;;10.40;99.90;;;;;;5038855;28;20419;-66
2022/12/20 09:38:22;;;;;;;5.70;2.75;;;10.80;99.90;;;;;;5038307;28;20076;-65
2022/12/20 09:40:51;;;;;;;4.25;2.92;;;10.20;99.90;;;;;;5004721;28;20621;-65
2022/12/20 09:43:18;;;;;;;4.55;2.53;;;10.20;99.90;;;;;;5039409;28;20032;-65
2022/12/20 09:45:46;;;;;;;3.53;2.28;;;10.20;99.90;;;;;;5040065;28;20049;-66
2022/12/20 09:48:21;;;;;;;4.65;2.50;;;10.50;99.90;;;;;;5037963;28;20216;-66
2022/12/20 09:51:17;;;;;;;5.88;2.47;;;10.60;99.90;;;;;;5023825;28;20049;-66
2022/12/20 09:54:17;;;;;;;4.70;2.28;;;10.40;99.90;;;;;;5038082;28;20374;-65
2022/12/20 09:56:50;;;;;;;4.60;2.05;;;10.90;99.90;;;;;;5038717;28;20057;-66
2022/12/20 09:59:19;;;;;;;3.22;2.15;;;10.90;99.90;;;;;;5040806;28;20060;-66
2022/12/20 10:01:49;;;;;;;3.30;2.15;;;10.70;99.90;;;;;;5041301;28;20037;-66
2022/12/20 10:04:27;;;;;;;4.43;2.08;;;10.90;99.90;;;;;;5038314;28;20352;-65
2022/12/20 10:07:02;;;;;;;2.67;2.10;;;10.60;99.90;;;;;;5039835;28;20072;-64
2022/12/20 10:09:49;;;;;;;3.38;2.08;;;11.00;99.90;;;;;;5037576;28;20048;-66
2022/12/20 10:12:21;;;;;;;5.03;1.90;;;10.70;99.90;;;;;;5039221;28;20106;-66
2022/12/20 10:15:12;;;;;;;5.68;1.83;;;11.00;99.90;;;;;;5039853;28;20479;-66
2022/12/20 10:17:40;;;;;;;6.03;2.20;;;10.70;99.90;;;;;;5038907;28;20049;-66
2022/12/20 10:20:29;;;;;;;4.25;1.70;;;10.90;99.90;;;;;;5038961;28;20071;-65
2022/12/20 10:23:16;;;;;;;3.10;2.15;;;10.80;99.90;;;;;;5040409;28;20517;-65
2022/12/20 10:25:43;;;;;;;5.32;2.10;;;10.70;99.90;;;;;;5038533;28;20506;-64
2022/12/20 10:28:23;;;;;;;5.20;1.92;;;10.80;99.90;;;;;;5022511;28;20078;-65
2022/12/20 10:30:49;;;;;;;4.80;2.30;;;11.00;99.90;;;;;;5040383;28;20247;-65
2022/12/20 10:33:23;;;;;;;5.88;1.92;;;11.00;99.90;;;;;;5039712;28;20118;-65
2022/12/20 10:35:50;;;;;;;2.45;1.73;;;10.70;99.90;;;;;;5038232;28;20044;-64
2022/12/20 10:38:19;;;;;;;3.90;1.50;;;11.10;99.90;;;;;;5039484;28;20044;-64
2022/12/20 10:41:00;;;;;;;3.78;1.67;;;11.00;99.90;;;;;;5020021;28;20120;-65
2022/12/20 10:43:27;;;;;;;2.30;1.40;;;10.80;99.90;;;;;;5016739;28;20487;-65
2022/12/20 10:46:07;;;;;;;3.92;1.48;;;10.80;99.90;;;;;;5023032;28;20049;-65
2022/12/20 10:48:35;;;;;;;3.13;1.65;;;11.00;99.90;;;;;;5072534;28;20079;-65
2022/12/20 10:51:12;;;;;;;2.78;1.60;;;10.80;99.90;;;;;;5069488;28;20107;-64
2022/12/20 10:53:59;;;;;;;3.08;1.45;;;10.90;99.90;;;;;;5038477;28;20571;-64
2022/12/20 10:56:30;;;;;;;4.22;1.65;;;11.00;99.90;;;;;;5069874;28;20048;-63
2022/12/20 10:59:21;;;;;;;3.13;1.70;;;10.80;99.90;;;;;;5021814;28;20049;-64
2022/12/20 11:01:48;;;;;;;4.95;1.98;;;11.00;99.90;;;;;;5056116;28;20053;-64
2022/12/20 11:04:33;;;;;;;3.83;1.70;;;11.10;99.90;;;;;;5038863;28;20596;-64
2022/12/20 11:07:01;;;;;;;1.80;1.15;;;11.20;99.90;;;;;;5038084;28;20044;-65
2022/12/20 11:09:31;;;;;;;2.83;1.55;;;11.00;99.90;;;;;;5039207;28;20048;-65
2022/12/20 11:12:01;;;;;;;2.63;1.33;;;11.30;99.90;;;;;;5019662;28;20295;-64
2022/12/20 11:14:28;;;;;;;5.00;1.73;;;11.30;99.90;;;;;;5038005;28;20475;-66
2022/12/20 11:16:56;;;;;;;3.97;1.70;;;11.30;99.90;;;;;;5038863;28;20049;-64
2022/12/20 11:19:37;;;;;;;3.63;1.60;;;11.20;99.90;;;;;;5038973;28;20049;-64
2022/12/20 11:22:14;;;;;;;1.98;1.30;;;11.10;99.90;;;;;;5039330;28;20037;-64
2022/12/20 11:24:48;;;;;;;4.28;1.70;;;11.30;99.90;;;;;;5072841;28;20045;-65
2022/12/20 11:27:33;;;;;;;5.07;2.08;;;11.00;99.90;;;;;;5035139;28;20406;-64
2022/12/20 11:30:07;;;;;;;3.67;1.63;;;11.00;99.90;;;;;;5022657;28;20040;-64
2022/12/20 11:32:57;;;;;;;5.22;1.85;;;11.00;99.90;;;;;;5038899;28;20426;-64
2022/12/20 11:35:45;;;;;;;3.55;1.88;;;10.80;99.90;;;;;;5020361;28;20206;-64
2022/12/20 11:38:20;;;;;;;3.58;1.92;;;10.90;99.90;;;;;;5036947;28;20333;-65
2022/12/20 11:40:52;;;;;;;5.40;2.38;;;11.00;99.90;;;;;;5038701;28;20368;-64
2022/12/20 11:43:47;;;;;;;4.60;1.85;;;10.90;99.90;;;;;;5035493;28;20048;-61
2022/12/20 11:46:24;;;;;;;4.53;2.70;;;10.60;99.90;;;;;;5039134;28;20460;-65
2022/12/20 11:49:11;;;;;;;5.88;2.33;;;10.80;99.90;;;;;;5040021;28;20037;-64
2022/12/20 11:52:07;;;;;;;6.25;2.20;;;10.90;99.90;;;;;;5037158;28;20872;-65
2022/12/20 11:54:48;;;;;;;4.82;2.40;;;10.60;99.90;;;;;;5006675;28;20394;-64
2022/12/20 11:57:27;;;;;;;4.85;2.92;;;10.90;99.90;;;;;;5037833;28;20045;-64
2022/12/20 11:59:58;;;;;;;4.30;2.63;;;11.00;99.90;;;;;;5017919;28;20056;-65
2022/12/20 12:02:37;;;;;;;4.70;2.70;;;11.00;99.90;;;;;;5037527;28;20120;-64
2022/12/20 12:05:17;;;;;;;3.95;1.77;;;11.00;99.90;;;;;;5071278;28;20052;-66
2022/12/20 12:07:49;;;;;;;3.83;2.22;;;11.00;99.90;;;;;;5037786;28;20534;-65
2022/12/20 12:10:25;;;;;;;3.92;2.13;;;10.60;99.90;;;;;;5037928;28;20051;-64
2022/12/20 12:13:12;;;;;;;4.05;1.98;;;10.50;99.90;;;;;;5039778;28;20036;-65
2022/12/20 12:15:47;;;;;;;3.78;2.08;;;11.10;99.90;;;;;;5016878;28;20450;-65
2022/12/20 12:18:18;;;;;;;6.47;2.13;;;10.90;99.90;;;;;;5037786;28;20255;-65
2022/12/20 12:20:50;;;;;;;3.67;2.25;;;10.50;99.90;;;;;;5071533;28;20095;-64
2022/12/20 12:23:22;;;;;;;3.70;2.58;;;10.50;99.90;;;;;;5036437;28;20052;-65
2022/12/20 12:25:48;;;;;;;3.22;2.30;;;10.70;99.90;;;;;;5037698;28;20343;-65
2022/12/20 12:28:17;;;;;;;8.50;3.03;;;10.80;99.90;;;;;;5038801;28;20063;-63
2022/12/20 12:30:55;;;;;;;4.53;2.20;;;10.50;99.90;;;;;;5035732;28;20462;-64
2022/12/20 12:33:28;;;;;;;7.75;2.75;;;10.80;99.90;;;;;;5021064;28;20114;-64
2022/12/20 12:36:26;;;;;;;5.35;2.45;;;10.40;99.90;;;;;;5039136;28;20132;-64
2022/12/20 12:38:52;;;;;;;3.15;2.50;;;10.90;99.90;;;;;;5037216;28;20045;-64
2022/12/20 12:41:41;;;;;;;3.85;3.28;;;10.40;99.90;;;;;;5038963;28;20056;-64
2022/12/20 12:44:32;;;;;;;4.13;2.58;;;10.40;99.90;;;;;;5037670;28;20735;-63
2022/12/20 12:47:10;;;;;;;3.90;2.70;;;11.10;99.90;;;;;;5034755;28;20274;-65
2022/12/20 12:49:37;;;;;;;4.68;2.67;;;10.40;99.90;;;;;;5038389;28;20430;-64
2022/12/20 12:52:04;;;;;;;5.50;2.85;;;10.70;99.90;;;;;;5070492;28;20154;-63
2022/12/20 12:54:30;;;;;;;3.33;1.83;;;10.40;99.90;;;;;;5035683;28;20052;-63
2022/12/20 12:57:10;;;;;;;6.18;3.40;;;10.30;99.90;;;;;;5038395;28;20462;-64
2022/12/20 12:59:36;;;;;;;5.60;3.75;;;10.30;99.90;;;;;;5036843;28;20160;-63
2022/12/20 13:02:04;;;;;;;7.20;3.88;;;11.00;99.90;;;;;;5032833;28;20139;-63
2022/12/20 13:04:56;;;;;;;5.13;3.13;;;11.00;99.90;;;;;;5036499;28;20051;-63
2022/12/20 13:07:30;;;;;;;6.00;3.90;;;10.70;99.90;;;;;;5035635;28;20067;-64
2022/12/20 13:09:57;;;;;;;5.20;3.60;;;10.40;99.90;;;;;;5034503;28;20122;-63
2022/12/20 13:12:35;;;;;;;6.65;4.35;;;10.90;99.90;;;;;;5036096;28;20052;-64
2022/12/20 13:15:21;;;;;;;4.65;3.45;;;10.00;99.90;;;;;;5037104;28;20059;-63